createdAt,value
2019-03-15T03:07:40.703Z,26.9
2019-03-15T03:08:30.521Z,27.3
2019-03-15T03:09:20.074Z,27.2
2019-03-15T03:10:11.531Z,27.3
2019-03-15T03:11:02.508Z,27.4
2019-03-15T03:11:52.809Z,27.6
2019-03-15T03:13:31.094Z,28
2019-03-15T03:14:21.191Z,28.2
2019-03-15T03:15:28.298Z,28.4
2019-03-15T03:16:01.044Z,28.6
2019-03-15T03:16:52.519Z,28.7
2019-03-15T03:17:43.492Z,28.8
2019-03-15T03:18:31.918Z,29
2019-03-15T03:19:21.359Z,29.1
2019-03-15T03:20:11.344Z,29.2
2019-03-15T03:21:00.886Z,29.3
2019-03-15T03:21:50.621Z,29.4
2019-03-15T03:22:42.724Z,29.6
2019-03-15T03:23:32.168Z,29.6
2019-03-15T03:24:21.439Z,29.4
2019-03-15T03:25:11.346Z,29.3
2019-03-15T03:26:01.181Z,29.1
2019-03-15T03:26:52.763Z,29
2019-03-15T03:27:42.930Z,28.9
2019-03-15T03:28:33.650Z,28.8
2019-03-15T03:29:23.507Z,28.6
2019-03-15T03:30:12.852Z,28.5
2019-03-15T03:31:02.158Z,28.3
2019-03-15T03:31:54.963Z,28.3
2019-03-15T03:32:47.686Z,27.3
2019-03-15T03:33:46.879Z,27
2019-03-15T03:34:22.710Z,26.7
2019-03-15T03:35:17.422Z,26.6
2019-03-15T03:36:03.828Z,26.4
2019-03-15T03:36:58.567Z,26.3
2019-03-15T03:37:56.457Z,26.2
2019-03-15T03:38:31.721Z,26
2019-03-15T03:39:22.452Z,25.9
2019-03-15T03:40:12.542Z,25.8
2019-03-15T03:41:04.192Z,25.8
2019-03-15T03:41:52.711Z,25.6
2019-03-15T03:42:43.042Z,25.8
2019-03-15T03:43:47.805Z,25.8
2019-03-15T03:44:23.041Z,25.8
2019-03-15T03:45:12.014Z,25.7
2019-03-15T03:46:02.621Z,25.6
2019-03-15T03:46:54.475Z,25.5
2019-03-15T03:47:43.887Z,25.4
2019-03-15T03:48:33.082Z,25.3
2019-03-15T03:49:23.111Z,25.2
2019-03-15T03:50:13.143Z,25.1
2019-03-15T03:51:06.879Z,25
2019-03-15T03:51:53.016Z,24.9
2019-03-15T03:52:46.734Z,25
2019-03-15T03:53:33.168Z,25.1
2019-03-15T03:54:22.495Z,25.4
2019-03-15T03:55:13.411Z,25.9
2019-03-15T03:56:02.745Z,26.6
2019-03-15T03:56:53.838Z,27.3
2019-03-15T03:57:44.229Z,27.4
2019-03-15T03:58:33.731Z,27.3
2019-03-15T03:59:23.933Z,27.3
2019-03-15T04:00:13.689Z,27.3
2019-03-15T04:01:03.164Z,27.4
2019-03-15T04:01:53.676Z,27.7
2019-03-15T04:02:44.849Z,27.9
2019-03-15T04:03:34.363Z,28
2019-03-15T04:04:23.353Z,28.4
2019-03-15T04:05:14.175Z,28.6
2019-03-15T04:06:03.761Z,28.2
2019-03-15T04:06:55.079Z,27.4
2019-03-15T04:07:43.615Z,26.8
2019-03-15T04:08:35.693Z,26
2019-03-15T04:09:24.238Z,25.1
2019-03-15T04:10:15.303Z,24.1
2019-03-15T04:11:04.512Z,23.8
2019-03-15T04:12:04.460Z,23.8
2019-03-15T04:12:44.969Z,24.7
2019-03-15T04:13:34.855Z,25.4
2019-03-15T04:14:25.492Z,26.3
2019-03-15T04:15:13.947Z,27.3
2019-03-15T04:16:04.925Z,27.2
2019-03-15T04:16:55.524Z,27.2
2019-03-15T04:17:45.107Z,27.3
2019-03-15T04:18:35.695Z,27.4
2019-03-15T04:19:26.658Z,27.6
2019-03-15T04:20:14.982Z,27.9
2019-03-15T04:21:05.038Z,28.1
2019-03-15T04:21:55.913Z,28.3
2019-03-15T04:22:45.692Z,28.4
2019-03-15T04:23:39.538Z,28.6
2019-03-15T04:24:26.162Z,28.8
2019-03-15T04:25:31.640Z,28.9
2019-03-15T04:26:06.289Z,29.1
2019-03-15T04:26:56.584Z,29.2
2019-03-15T04:27:46.154Z,29.3
2019-03-15T04:28:34.756Z,29.4
2019-03-15T04:29:26.752Z,29.5
2019-03-15T04:30:17.374Z,29.6
2019-03-15T04:31:06.594Z,29.5
2019-03-15T04:31:56.362Z,29.4
2019-03-15T04:33:03.514Z,29.2
2019-03-15T04:33:35.329Z,29
2019-03-15T04:34:30.522Z,28.9
2019-03-15T04:35:17.686Z,28.8
2019-03-15T04:36:06.633Z,28.7
2019-03-15T04:36:56.451Z,28.6
2019-03-15T04:37:47.051Z,28.4
2019-03-15T04:38:37.157Z,28.3
2019-03-15T04:39:27.470Z,28.2
2019-03-15T04:40:16.263Z,27.3
2019-03-15T04:41:07.048Z,26.9
2019-03-15T04:41:55.944Z,26.6
2019-03-15T04:42:47.441Z,26.4
2019-03-15T04:43:36.726Z,26.3
2019-03-15T04:44:27.768Z,26.2
2019-03-15T04:45:17.859Z,26
2019-03-15T04:46:06.811Z,25.9
2019-03-15T04:46:58.020Z,25.8
2019-03-15T04:47:50.603Z,25.7
2019-03-15T04:48:37.325Z,25.6
2019-03-15T04:49:27.873Z,25.5
2019-03-15T04:50:18.610Z,25.6
2019-03-15T04:51:07.638Z,25.6
2019-03-15T04:51:58.085Z,25.6
2019-03-15T04:52:47.253Z,25.6
2019-03-15T04:53:37.488Z,25.4
2019-03-15T04:54:27.455Z,25.4
2019-03-15T04:55:18.151Z,25.3
2019-03-15T04:56:07.906Z,25.1
2019-03-15T04:56:58.409Z,25.1
2019-03-15T04:57:48.490Z,24.9
2019-03-15T04:58:38.575Z,24.8
2019-03-15T04:59:32.240Z,24.9
2019-03-15T05:00:18.351Z,25.1
2019-03-15T05:01:08.698Z,25.3
2019-03-15T05:01:58.725Z,25.9
2019-03-15T05:02:48.917Z,26.5
2019-03-15T05:03:38.665Z,27.3
2019-03-15T05:04:43.122Z,27.3
2019-03-15T05:05:18.491Z,27.2
2019-03-15T05:06:13.145Z,27.3
2019-03-15T05:06:58.911Z,27.3
2019-03-15T05:07:49.493Z,27.5
2019-03-15T05:08:39.029Z,27.7
2019-03-15T05:09:28.407Z,27.9
2019-03-15T05:10:19.328Z,28.1
2019-03-15T05:11:10.149Z,28.3
2019-03-15T05:11:59.240Z,28.4
2019-03-15T05:12:48.702Z,28.5
2019-03-15T05:13:39.875Z,28.7
2019-03-15T05:14:44.300Z,28.8
2019-03-15T05:15:19.229Z,28.9
2019-03-15T05:16:09.782Z,29.1
2019-03-15T05:16:58.582Z,29.1
2019-03-15T05:17:49.477Z,29.3
2019-03-15T05:18:39.299Z,29.4
2019-03-15T05:19:29.474Z,29.5
2019-03-15T05:20:23.267Z,29.6
2019-03-15T05:21:10.229Z,29.6
2019-03-15T05:22:14.919Z,29.4
2019-03-15T05:22:49.674Z,29.3
2019-03-15T05:23:40.067Z,29.2
2019-03-15T05:24:30.066Z,29.1
2019-03-15T05:25:35.344Z,28.9
2019-03-15T05:26:09.979Z,28.7
2019-03-15T05:27:00.806Z,28.6
2019-03-15T05:27:50.609Z,28.5
2019-03-15T05:28:40.376Z,28.3
2019-03-15T05:29:29.839Z,28
2019-03-15T05:30:21.037Z,27.3
2019-03-15T05:31:09.686Z,26.9
2019-03-15T05:32:01.234Z,26.7
2019-03-15T05:32:50.346Z,26.5
2019-03-15T05:33:40.731Z,26.3
2019-03-15T05:34:31.343Z,26.2
2019-03-15T05:35:20.828Z,26.1
2019-03-15T05:36:10.371Z,26
2019-03-15T05:37:01.801Z,25.9
2019-03-15T05:37:51.391Z,25.8
2019-03-15T05:38:44.103Z,25.6
2019-03-15T05:39:31.514Z,25.5
2019-03-15T05:40:20.928Z,25.7
2019-03-15T05:41:11.261Z,25.8
2019-03-15T05:42:00.775Z,25.7
2019-03-15T05:42:51.200Z,25.6
2019-03-15T05:43:41.437Z,25.5
2019-03-15T05:44:30.980Z,25.4
2019-03-15T05:45:21.843Z,25.3
2019-03-15T05:46:11.123Z,25.2
2019-03-15T05:47:01.731Z,25.1
2019-03-15T05:47:52.551Z,24.9
2019-03-15T05:48:41.348Z,24.8
2019-03-15T05:49:31.932Z,25.1
2019-03-15T05:50:21.142Z,25.2
2019-03-15T05:51:11.715Z,25.5
2019-03-15T05:52:02.665Z,25.9
2019-03-15T05:52:52.630Z,26
2019-03-15T05:53:42.712Z,26.2
2019-03-15T05:54:32.869Z,26.4
2019-03-15T05:55:22.535Z,26.6
2019-03-15T05:56:12.479Z,26.9
2019-03-15T05:57:17.000Z,27.1
2019-03-15T05:58:07.622Z,27.4
2019-03-15T05:58:42.805Z,27.3
2019-03-15T05:59:31.729Z,27.3
2019-03-15T06:00:21.974Z,27.2
2019-03-15T06:01:12.777Z,27.1
2019-03-15T06:02:03.010Z,26.9
2019-03-15T06:02:52.864Z,26.8
2019-03-15T06:05:39.372Z,26.5
2019-03-15T06:06:29.874Z,26.4
2019-03-15T06:07:20.856Z,25.9
2019-03-15T06:08:10.674Z,25.5
2019-03-15T06:09:00.536Z,25.3
2019-03-15T06:09:49.459Z,25.1
2019-03-15T06:10:40.004Z,24.9
2019-03-15T06:11:30.624Z,24.9
2019-03-15T06:12:20.991Z,24.8
2019-03-15T06:13:09.919Z,24.6
2019-03-15T06:14:00.333Z,24.6
2019-03-15T06:14:53.821Z,24.4
2019-03-15T06:15:40.101Z,24.3
2019-03-15T06:16:31.517Z,24.3
2019-03-15T06:17:20.989Z,24.2
2019-03-15T06:18:15.123Z,24.4
2019-03-15T06:19:01.503Z,24.5
2019-03-15T06:19:50.367Z,24.4
2019-03-15T06:20:41.566Z,24.4
2019-03-15T06:21:31.300Z,24.3
2019-03-15T06:22:21.825Z,24.2
2019-03-15T06:23:11.143Z,24.1
2019-03-15T06:24:02.040Z,24
2019-03-15T06:24:51.043Z,23.9
2019-03-15T06:25:41.489Z,23.8
2019-03-15T06:26:31.511Z,23.8
2019-03-15T06:27:22.336Z,23.6
2019-03-15T06:28:11.901Z,23.9
2019-03-15T06:29:05.298Z,24
2019-03-15T06:29:51.365Z,23.9
2019-03-15T06:30:42.568Z,23.9
2019-03-15T06:31:32.333Z,23.8
2019-03-15T06:32:22.727Z,23.8
2019-03-15T06:33:11.675Z,23.6
2019-03-15T06:34:02.282Z,23.6
2019-03-15T06:34:52.535Z,23.4
2019-03-15T06:35:41.760Z,23.4
2019-03-15T06:36:32.620Z,23.3
2019-03-15T06:37:22.437Z,23.2
2019-03-15T06:38:12.622Z,23.2
2019-03-15T06:39:02.851Z,23.5
2019-03-15T06:39:52.567Z,23.5
2019-03-15T06:40:42.382Z,23.4
2019-03-15T06:41:33.939Z,23.4
2019-03-15T06:42:22.778Z,23.3
2019-03-15T06:43:16.611Z,23.3
2019-03-15T06:44:02.478Z,23.1
2019-03-15T06:45:06.822Z,23.1
2019-03-15T06:45:46.652Z,22.9
2019-03-15T06:46:32.307Z,22.9
2019-03-15T06:47:22.219Z,22.8
2019-03-15T06:48:12.154Z,22.8
2019-03-15T06:49:03.709Z,23.1
2019-03-15T06:49:54.309Z,23.3
2019-03-15T06:50:43.673Z,23.8
2019-03-15T06:51:33.499Z,24.5
2019-03-15T06:52:23.567Z,24.8
2019-03-15T06:53:12.986Z,25.1
2019-03-15T06:54:18.026Z,25.4
2019-03-15T06:54:53.941Z,25.7
2019-03-15T06:55:43.981Z,25.9
2019-03-15T06:56:33.583Z,26.2
2019-03-15T06:57:23.289Z,26.5
2019-03-15T06:58:14.036Z,26.8
2019-03-15T06:59:04.256Z,26.9
2019-03-15T06:59:53.146Z,27.2
2019-03-15T07:00:44.079Z,27.3
2019-03-15T07:01:33.826Z,27.3
2019-03-15T07:02:25.616Z,27.3
2019-03-15T07:03:15.443Z,27.1
2019-03-15T07:05:40.406Z,26.8
2019-03-15T07:06:30.293Z,26.7
2019-03-15T07:07:22.743Z,26.6
2019-03-15T07:08:10.891Z,26.4
2019-03-15T07:09:00.645Z,26.3
2019-03-15T07:09:50.170Z,26.3
2019-03-15T07:10:43.797Z,25.8
2019-03-15T07:11:29.233Z,25.2
2019-03-15T07:12:21.013Z,24.9
2019-03-15T07:13:09.954Z,24.8
2019-03-15T07:14:01.047Z,24.6
2019-03-15T07:14:51.620Z,24.5
2019-03-15T07:15:45.718Z,24.4
2019-03-15T07:16:31.303Z,24.3
2019-03-15T07:17:22.057Z,24.2
2019-03-15T07:18:10.780Z,24.1
2019-03-15T07:19:01.347Z,24
2019-03-15T07:19:50.315Z,23.9
2019-03-15T07:20:40.932Z,23.8
2019-03-15T07:21:31.309Z,24.1
2019-03-15T07:22:24.673Z,24.1
2019-03-15T07:23:11.500Z,24.1
2019-03-15T07:24:05.422Z,24
2019-03-15T07:24:53.175Z,23.9
2019-03-15T07:25:40.846Z,23.8
2019-03-15T07:26:32.199Z,23.8
2019-03-15T07:27:23.429Z,23.6
2019-03-15T07:28:11.366Z,23.6
2019-03-15T07:29:02.096Z,23.4
2019-03-15T07:29:52.156Z,23.4
2019-03-15T07:30:42.567Z,23.3
2019-03-15T07:31:32.257Z,23.5
2019-03-15T07:32:22.594Z,23.6
2019-03-15T07:33:12.094Z,23.6
2019-03-15T07:34:00.444Z,23.6
2019-03-15T07:34:51.931Z,23.4
2019-03-15T07:35:43.070Z,23.4
2019-03-15T07:36:33.277Z,23.3
2019-03-15T07:37:23.614Z,23.2
2019-03-15T07:38:12.709Z,23.1
2019-03-15T07:39:01.494Z,23.1
2019-03-15T07:39:52.672Z,22.9
2019-03-15T07:40:42.591Z,22.9
2019-03-15T07:41:34.859Z,22.8
2019-03-15T07:42:22.975Z,23.2
2019-03-15T07:43:13.478Z,23.3
2019-03-15T07:44:02.138Z,23.8
2019-03-15T07:44:56.048Z,24.5
2019-03-15T07:45:42.813Z,24.8
2019-03-15T07:46:32.466Z,25.1
2019-03-15T07:47:23.144Z,25.4
2019-03-15T07:48:30.624Z,25.6
2019-03-15T07:49:03.188Z,26
2019-03-15T07:49:52.128Z,26.2
2019-03-15T07:50:43.809Z,26.5
2019-03-15T07:51:33.617Z,26.8
2019-03-15T07:52:24.348Z,27.1
2019-03-15T07:53:13.789Z,27.3
2019-03-15T07:54:03.341Z,27.3
2019-03-15T07:54:53.980Z,27.3
2019-03-15T07:55:44.052Z,27.2
2019-03-15T07:56:37.388Z,27.1
2019-03-15T07:57:23.962Z,26.9
2019-03-15T07:58:13.563Z,26.8
2019-03-15T07:59:04.195Z,26.8
2019-03-15T07:59:53.287Z,26.6
2019-03-15T08:00:58.495Z,26.5
2019-03-15T08:01:32.975Z,26.4
2019-03-15T08:02:24.392Z,26.4
2019-03-15T08:03:14.077Z,25.4
2019-03-15T08:04:19.112Z,25.1
2019-03-15T08:04:54.962Z,24.8
2019-03-15T08:05:44.720Z,24.6
2019-03-15T08:06:45.022Z,24.5
2019-03-15T08:07:51.772Z,24.4
2019-03-15T08:08:15.085Z,24.3
2019-03-15T08:09:04.095Z,24.2
2019-03-15T08:09:58.585Z,24.1
2019-03-15T08:10:44.029Z,24
2019-03-15T08:11:33.454Z,23.9
2019-03-15T08:12:24.859Z,23.8
2019-03-15T08:13:15.122Z,23.7
2019-03-15T08:14:04.674Z,23.6
2019-03-15T08:14:54.702Z,23.6
2019-03-15T08:15:45.385Z,23.4
2019-03-15T08:16:39.089Z,23.4
2019-03-15T08:17:24.409Z,23.3
2019-03-15T08:18:15.277Z,23.3
2019-03-15T08:19:09.144Z,23.1
2019-03-15T08:19:54.548Z,23.4
2019-03-15T08:20:45.840Z,23.8
2019-03-15T08:21:52.787Z,24.1
2019-03-15T08:22:40.106Z,24.9
2019-03-15T08:23:19.069Z,25.1
2019-03-15T08:24:20.326Z,25.4
2019-03-15T08:25:00.452Z,25.6
2019-03-15T08:25:46.471Z,25.8
2019-03-15T08:26:53.349Z,26.1
2019-03-15T08:27:42.436Z,26.5
2019-03-15T08:28:46.713Z,26.8
2019-03-15T08:29:11.560Z,27.1
2019-03-15T08:30:30.001Z,27.3
2019-03-15T08:31:01.711Z,27.4
2019-03-15T08:33:11.883Z,27.2
2019-03-15T08:33:53.829Z,27.1
2019-03-15T08:34:42.073Z,26.9
2019-03-15T08:35:07.989Z,26.9
2019-03-15T08:36:08.718Z,26.8
2019-03-15T08:37:12.777Z,26.6
2019-03-15T08:37:48.370Z,26.6
2019-03-15T08:38:24.588Z,26.4
2019-03-15T08:39:14.093Z,26.4
2019-03-15T08:40:03.825Z,26.3
2019-03-15T08:41:08.639Z,26.1
2019-03-15T08:41:44.425Z,26
2019-03-15T08:42:36.823Z,25.9
2019-03-15T08:43:38.507Z,25.9
2019-03-15T08:44:13.861Z,25.8
2019-03-15T08:45:33.647Z,25.7
2019-03-15T08:46:23.472Z,25.5
2019-03-15T08:46:44.215Z,25.4
2019-03-15T08:47:51.262Z,25.4
2019-03-15T08:48:23.366Z,25.3
2019-03-15T08:49:13.002Z,25.2
2019-03-15T08:50:05.805Z,25.1
2019-03-15T08:51:12.363Z,25
2019-03-15T08:52:07.744Z,24.9
2019-03-15T08:52:34.595Z,24.8
2019-03-15T08:53:38.684Z,24.7
2019-03-15T08:54:15.739Z,24.6
2019-03-15T08:55:33.362Z,24.5
2019-03-15T08:56:14.321Z,24.4
2019-03-15T08:56:44.434Z,24.3
2019-03-15T08:58:31.154Z,24.2
2019-03-15T08:59:16.394Z,24.1
2019-03-15T09:00:22.331Z,24
2019-03-15T09:00:54.613Z,23.8
2019-03-15T09:01:45.114Z,23.8
2019-03-15T09:02:49.872Z,24
2019-03-15T09:03:55.669Z,24.8
2019-03-15T09:04:16.946Z,25
2019-03-15T09:05:34.419Z,25.2
2019-03-15T09:06:01.456Z,25.6
2019-03-15T09:06:48.313Z,25.7
2019-03-15T09:07:35.944Z,26
2019-03-15T09:08:54.686Z,26.3
2019-03-15T09:09:31.081Z,26.8
2019-03-15T09:11:31.269Z,27.1
2019-03-15T09:11:42.536Z,27.4
2019-03-15T09:12:47.541Z,27.4
2019-03-15T09:13:24.532Z,27.3
2019-03-15T09:14:13.721Z,27.2
2019-03-15T09:15:06.218Z,27.1
2019-03-15T09:15:53.613Z,27
2019-03-15T09:16:58.114Z,26.9
2019-03-15T09:17:34.156Z,26.8
2019-03-15T09:18:55.319Z,26.6
2019-03-15T09:19:28.245Z,26.5
2019-03-15T09:20:03.503Z,26.4
2019-03-15T09:20:52.823Z,26.3
2019-03-15T09:21:44.003Z,26.3
2019-03-15T09:22:49.073Z,26.1
2019-03-15T09:23:26.545Z,26
2019-03-15T09:24:43.283Z,25.9
2019-03-15T09:25:03.390Z,25.8
2019-03-15T09:25:54.214Z,25.7
2019-03-15T09:26:43.415Z,25.6
2019-03-15T09:28:06.719Z,25.5
2019-03-15T09:28:39.086Z,25.4
2019-03-15T09:29:14.698Z,25.3
2019-03-15T09:30:04.022Z,25.3
2019-03-15T09:31:23.623Z,25.2
2019-03-15T09:32:16.040Z,25
2019-03-15T09:33:45.107Z,24.8
2019-03-15T09:35:39.752Z,24.7
2019-03-15T09:35:59.895Z,24.6
2019-03-15T09:37:15.779Z,24.5
2019-03-15T09:37:41.647Z,24.4
2019-03-15T09:38:32.107Z,24.3
2019-03-15T09:39:21.222Z,24.3
2019-03-15T09:40:11.514Z,24.2
2019-03-15T09:41:45.139Z,24.1
2019-03-15T10:06:39.642Z,25.7
2019-03-15T10:07:50.682Z,25.6
2019-03-15T10:08:24.528Z,25.5
2019-03-15T10:09:10.083Z,25.4
2019-03-15T10:09:58.919Z,25.3
2019-03-15T10:10:53.691Z,25.2
2019-03-15T10:11:40.168Z,25.2
2019-03-15T10:12:29.434Z,25.1
2019-03-15T10:13:19.742Z,25
2019-03-15T10:14:10.979Z,24.9
2019-03-15T10:15:00.518Z,24.8
2019-03-15T10:15:56.393Z,24.7
2019-03-15T10:16:39.659Z,24.6
2019-03-15T10:17:32.090Z,24.5
2019-03-15T10:18:20.361Z,24.4
2019-03-15T10:19:10.036Z,24.3
2019-03-15T10:20:00.746Z,24.3
2019-03-15T10:20:54.537Z,24.2
2019-03-15T10:21:40.576Z,24.1
2019-03-15T10:22:30.632Z,24
2019-03-15T10:23:20.985Z,23.8
2019-03-15T10:24:10.373Z,24
2019-03-15T10:24:59.600Z,24.6
2019-03-15T10:25:59.229Z,24.9
2019-03-15T10:26:40.799Z,25.2
2019-03-15T10:27:31.084Z,25.4
2019-03-15T10:28:20.291Z,25.8
2019-03-15T10:29:27.953Z,26.1
2019-03-15T10:30:01.922Z,26.6
2019-03-15T10:30:50.431Z,26.8
2019-03-15T10:31:41.423Z,27.1
2019-03-15T10:32:31.659Z,27.4
2019-03-15T10:33:21.766Z,27.4
2019-03-15T10:34:14.443Z,27.3
2019-03-15T10:35:02.010Z,27.3
2019-03-15T10:35:51.351Z,27.1
2019-03-15T10:36:44.258Z,27
2019-03-15T10:37:32.849Z,26.9
2019-03-15T10:38:25.648Z,26.8
2019-03-15T10:39:12.604Z,26.7
2019-03-15T10:40:02.410Z,26.6
2019-03-15T10:40:52.858Z,26.5
2019-03-15T10:41:46.360Z,26.4
2019-03-15T10:42:32.640Z,26.3
2019-03-15T10:43:22.623Z,26.2
2019-03-15T10:44:13.826Z,26.1
2019-03-15T10:45:02.863Z,25.9
2019-03-15T10:45:53.347Z,25.9
2019-03-15T10:46:44.967Z,25.8
2019-03-15T10:47:33.297Z,25.7
2019-03-15T10:48:33.912Z,25.6
2019-03-15T10:49:12.808Z,25.4
2019-03-15T10:50:02.335Z,25.4
2019-03-15T10:50:52.675Z,25.3
2019-03-15T10:51:43.851Z,25.3
2019-03-15T10:52:33.017Z,25.1
2019-03-15T10:53:24.280Z,25.1
2019-03-15T10:54:14.292Z,24.9
2019-03-15T10:55:03.517Z,24.9
2019-03-15T10:56:22.867Z,24.8
2019-03-15T10:56:43.837Z,24.6
2019-03-15T10:57:33.617Z,24.6
2019-03-15T10:58:23.477Z,24.5
2019-03-15T10:59:11.845Z,24.4
2019-03-15T11:00:03.691Z,24.4
2019-03-15T11:00:53.786Z,24.3
2019-03-15T11:01:43.717Z,24.2
2019-03-15T11:02:32.671Z,24.1
2019-03-15T11:03:23.149Z,23.9
2019-03-15T11:04:13.869Z,23.9
2019-03-15T11:05:03.704Z,24.3
2019-03-15T11:05:53.322Z,24.8
2019-03-15T11:06:43.246Z,25
2019-03-15T11:07:34.024Z,25.3
2019-03-15T11:08:27.191Z,25.6
2019-03-15T11:09:15.444Z,26
2019-03-15T11:10:04.905Z,26.4
2019-03-15T11:10:54.944Z,26.8
2019-03-15T11:11:44.666Z,27.1
2019-03-15T11:12:34.939Z,27.4
2019-03-15T11:13:25.371Z,27.4
2019-03-15T11:14:14.828Z,27.4
2019-03-15T11:15:04.429Z,27.3
2019-03-15T11:15:55.476Z,27.2
2019-03-15T11:16:44.811Z,27.1
2019-03-15T11:17:35.771Z,27
2019-03-15T11:18:25.957Z,26.9
2019-03-15T11:19:19.099Z,26.8
2019-03-15T11:20:05.446Z,26.6
2019-03-15T11:20:55.856Z,26.5
2019-03-15T11:21:46.183Z,26.4
2019-03-15T11:22:34.859Z,26.3
2019-03-15T11:23:24.898Z,26.2
2019-03-15T11:24:15.531Z,26.1
2019-03-15T11:25:20.188Z,26
2019-03-15T11:25:55.878Z,25.9
2019-03-15T11:26:46.254Z,25.8
2019-03-15T11:27:34.923Z,25.8
2019-03-15T11:28:25.733Z,25.6
2019-03-15T11:29:15.871Z,25.6
2019-03-15T11:30:05.898Z,25.4
2019-03-15T11:30:55.641Z,25.4
2019-03-15T11:31:46.073Z,25.3
2019-03-15T11:32:36.088Z,25.2
2019-03-15T11:33:25.938Z,25.1
2019-03-15T11:34:15.695Z,25
2019-03-15T11:35:06.170Z,24.9
2019-03-15T11:35:56.090Z,24.8
2019-03-15T11:37:04.082Z,24.7
2019-03-15T11:37:37.045Z,24.6
2019-03-15T11:38:25.845Z,24.6
2019-03-15T11:39:16.680Z,24.4
2019-03-15T11:40:22.174Z,24.4
2019-03-15T11:40:55.993Z,24.3
2019-03-15T11:41:46.278Z,24.2
2019-03-15T11:42:35.280Z,24.1
2019-03-15T11:43:25.404Z,24.1
2019-03-15T11:44:16.479Z,23.8
2019-03-15T11:45:06.839Z,24
2019-03-15T11:45:56.669Z,24.6
2019-03-15T11:46:47.945Z,24.9
2019-03-15T11:48:13.017Z,25.2
2019-03-15T11:48:27.458Z,25.8
2019-03-15T11:49:16.791Z,25.8
2019-03-15T11:50:07.364Z,26.2
2019-03-15T11:50:56.644Z,26.6
2019-03-15T11:51:50.606Z,26.9
2019-03-15T11:52:36.999Z,27.3
2019-03-15T11:53:26.824Z,27.4
2019-03-15T11:54:17.454Z,27.4
2019-03-15T11:55:06.926Z,27.3
2019-03-15T11:55:56.976Z,27.3
2019-03-15T11:56:50.503Z,27.2
2019-03-15T11:57:38.071Z,27
2019-03-15T11:58:27.179Z,26.9
2019-03-15T11:59:18.129Z,26.8
2019-03-15T12:00:08.094Z,26.7
2019-03-15T12:00:58.096Z,26.6
2019-03-15T12:01:48.149Z,26.5
2019-03-15T12:02:37.752Z,26.4
2019-03-15T12:03:29.161Z,26.3
2019-03-15T12:04:18.363Z,26.2
2019-03-15T12:06:39.101Z,25.9
2019-03-15T12:07:29.501Z,25.8
2019-03-15T12:08:19.417Z,25.7
2019-03-15T12:09:09.415Z,25.6
2019-03-15T12:10:00.016Z,25.5
2019-03-15T12:10:50.070Z,25.4
2019-03-15T12:11:39.505Z,25.4
2019-03-15T12:12:30.368Z,25.3
2019-03-15T12:13:19.914Z,25.2
2019-03-15T12:14:10.292Z,25.1
2019-03-15T12:14:59.813Z,25
2019-03-15T12:15:50.736Z,24.9
2019-03-15T12:16:39.950Z,24.8
2019-03-15T12:17:29.793Z,24.8
2019-03-15T12:18:19.844Z,24.6
2019-03-15T12:19:09.315Z,24.6
2019-03-15T12:20:00.410Z,24.5
2019-03-15T12:20:54.620Z,24.4
2019-03-15T12:21:40.572Z,24.3
2019-03-15T12:22:30.825Z,24.3
2019-03-15T12:23:20.417Z,24.1
2019-03-15T12:24:10.053Z,24.1
2019-03-15T12:25:01.207Z,23.8
2019-03-15T12:25:50.339Z,23.9
2019-03-15T12:26:48.840Z,24.5
2019-03-15T12:27:30.940Z,24.9
2019-03-15T12:28:21.474Z,25.1
2019-03-15T12:29:11.827Z,25.4
2019-03-15T12:30:01.855Z,25.8
2019-03-15T12:30:51.472Z,26.1
2019-03-15T12:31:41.422Z,26.5
2019-03-15T12:32:31.966Z,26.9
2019-03-15T12:33:22.446Z,27.3
2019-03-15T12:34:12.131Z,27.4
2019-03-15T12:35:02.277Z,27.4
2019-03-15T12:35:51.911Z,27.4
2019-03-15T12:36:41.916Z,27.3
2019-03-15T12:37:32.454Z,27.2
2019-03-15T12:38:21.754Z,27.1
2019-03-15T12:39:11.284Z,27
2019-03-15T12:40:02.629Z,26.9
2019-03-15T12:40:52.221Z,26.8
2019-03-15T12:41:41.659Z,26.6
2019-03-15T12:42:31.961Z,26.5
2019-03-15T12:43:22.129Z,26.4
2019-03-15T12:44:14.804Z,26.3
2019-03-15T12:45:02.838Z,26.2
2019-03-15T12:45:52.958Z,26.1
2019-03-15T12:46:41.726Z,26
2019-03-15T12:47:31.838Z,25.9
2019-03-15T12:48:22.611Z,25.8
2019-03-15T12:49:12.644Z,25.8
2019-03-15T12:50:02.464Z,25.6
2019-03-15T12:50:52.848Z,25.6
2019-03-15T12:51:42.093Z,25.5
2019-03-15T12:52:49.149Z,25.4
2019-03-15T12:53:22.808Z,25.3
2019-03-15T12:54:11.494Z,25.2
2019-03-15T12:55:03.108Z,25.1
2019-03-15T12:55:52.138Z,25
2019-03-15T12:56:57.403Z,24.9
2019-03-15T12:57:33.057Z,24.8
2019-03-15T12:58:23.074Z,24.8
2019-03-15T12:59:13.078Z,24.7
2019-03-15T13:00:03.995Z,24.6
2019-03-15T13:00:53.285Z,24.5
2019-03-15T13:01:43.346Z,24.4
2019-03-15T13:02:32.385Z,24.3
2019-03-15T13:03:23.655Z,24.2
2019-03-15T13:04:13.496Z,24.1
2019-03-15T13:05:04.020Z,24.1
2019-03-15T13:05:53.580Z,23.9
2019-03-15T13:06:44.177Z,23.8
2019-03-15T13:07:34.925Z,24.1
2019-03-15T13:08:23.467Z,24.7
2019-03-15T13:09:14.629Z,24.9
2019-03-15T13:10:04.234Z,25.3
2019-03-15T13:10:53.962Z,25.6
2019-03-15T13:11:43.534Z,26
2019-03-15T13:12:34.145Z,26.4
2019-03-15T13:13:24.307Z,26.8
2019-03-15T13:14:14.482Z,27.2
2019-03-15T13:15:05.303Z,27.4
2019-03-15T13:15:54.639Z,27.4
2019-03-15T13:16:44.334Z,27.4
2019-03-15T13:17:34.935Z,27.3
2019-03-15T13:18:25.352Z,27.2
2019-03-15T13:19:15.041Z,27.1
2019-03-15T13:20:05.546Z,27
2019-03-15T13:20:55.201Z,26.9
2019-03-15T13:21:43.869Z,26.8
2019-03-15T13:22:33.996Z,26.7
2019-03-15T13:23:25.179Z,26.6
2019-03-15T13:24:15.395Z,26.4
2019-03-15T13:25:05.987Z,26.3
2019-03-15T13:25:57.384Z,26.3
2019-03-15T13:26:45.969Z,26.1
2019-03-15T13:27:35.811Z,26
2019-03-15T13:28:25.995Z,25.9
2019-03-15T13:29:15.519Z,25.9
2019-03-15T13:30:06.373Z,25.8
2019-03-15T13:30:55.441Z,25.7
2019-03-15T13:31:45.657Z,25.6
2019-03-15T13:32:36.541Z,25.5
2019-03-15T13:33:29.181Z,25.4
2019-03-15T13:34:15.912Z,25.3
2019-03-15T13:35:06.126Z,25.2
2019-03-15T13:35:55.068Z,25.1
2019-03-15T13:36:46.353Z,25.1
2019-03-15T13:37:35.083Z,24.9
2019-03-15T13:38:25.933Z,24.9
2019-03-15T13:39:16.212Z,24.8
2019-03-15T13:40:07.323Z,24.7
2019-03-15T13:40:57.115Z,24.6
2019-03-15T13:41:46.845Z,24.6
2019-03-15T13:42:36.590Z,24.4
2019-03-15T13:43:27.302Z,24.4
2019-03-15T13:44:16.813Z,24.3
2019-03-15T13:45:07.140Z,24.2
2019-03-15T13:45:57.260Z,24.1
2019-03-15T13:46:46.020Z,24
2019-03-15T13:47:37.098Z,23.8
2019-03-15T13:48:26.623Z,23.9
2019-03-15T13:49:16.747Z,24.4
2019-03-15T13:50:07.063Z,24.8
2019-03-15T13:50:57.174Z,25.1
2019-03-15T13:51:47.990Z,25.4
2019-03-15T13:52:37.404Z,25.8
2019-03-15T13:53:28.307Z,26.1
2019-03-15T13:54:17.127Z,26.5
2019-03-15T13:55:06.927Z,26.9
2019-03-15T13:55:56.947Z,27.3
2019-03-15T13:56:51.217Z,27.4
2019-03-15T13:57:37.747Z,27.4
2019-03-15T13:58:28.092Z,27.3
2019-03-15T13:59:17.369Z,27.3
2019-03-15T14:00:08.855Z,27.2
2019-03-15T14:00:57.491Z,27.1
2019-03-15T14:01:47.221Z,27
2019-03-15T14:02:38.777Z,26.8
2019-03-15T14:03:28.559Z,26.8
2019-03-15T14:04:17.972Z,26.6
2019-03-15T14:05:08.855Z,26.5
2019-03-15T14:07:38.621Z,26.2
2019-03-15T14:08:28.853Z,26.1
2019-03-15T14:09:19.796Z,26
2019-03-15T14:10:12.769Z,25.9
2019-03-15T14:11:00.149Z,25.8
2019-03-15T14:11:49.626Z,25.8
2019-03-15T14:12:39.201Z,25.6
2019-03-15T14:13:30.008Z,25.6
2019-03-15T14:14:19.543Z,25.5
2019-03-15T14:15:10.898Z,25.3
2019-03-15T14:16:03.868Z,25.3
2019-03-15T14:16:50.606Z,25.2
2019-03-15T14:17:41.086Z,25.1
2019-03-15T14:18:31.101Z,25
2019-03-15T14:19:20.038Z,24.9
2019-03-15T14:20:10.765Z,24.8
2019-03-15T14:21:01.016Z,24.8
2019-03-15T14:21:54.310Z,24.6
2019-03-15T14:22:40.633Z,24.6
2019-03-15T14:23:30.258Z,24.5
2019-03-15T14:24:24.758Z,24.4
2019-03-15T14:25:11.285Z,24.3
2019-03-15T14:26:00.846Z,24.3
2019-03-15T14:26:55.449Z,24.2
2019-03-15T14:27:46.351Z,24.1
2019-03-15T14:28:31.577Z,23.8
2019-03-15T14:29:21.895Z,23.8
2019-03-15T14:30:11.448Z,24.2
2019-03-15T14:31:01.215Z,24.7
2019-03-15T14:31:51.815Z,24.9
2019-03-15T14:32:41.207Z,25.3
2019-03-15T14:33:31.988Z,25.6
2019-03-15T14:34:21.900Z,25.9
2019-03-15T14:35:12.530Z,26.3
2019-03-15T14:36:00.497Z,26.7
2019-03-15T14:36:53.775Z,27
2019-03-15T14:37:44.504Z,27.3
2019-03-15T14:38:33.711Z,27.4
2019-03-15T14:39:23.795Z,27.4
2019-03-15T14:40:13.984Z,27.3
2019-03-15T14:41:08.168Z,27.2
2019-03-15T14:41:54.557Z,27.1
2019-03-15T14:42:44.154Z,27
2019-03-15T14:43:35.442Z,26.9
2019-03-15T14:44:28.093Z,26.8
2019-03-15T14:45:14.839Z,26.7
2019-03-15T14:46:03.533Z,26.6
2019-03-15T14:46:51.912Z,26.5
2019-03-15T14:47:42.752Z,26.4
2019-03-15T14:48:32.749Z,26.3
2019-03-15T14:49:22.535Z,26.2
2019-03-15T14:50:13.270Z,26.1
2019-03-15T14:51:17.333Z,26
2019-03-15T14:51:52.573Z,25.8
2019-03-15T14:52:42.682Z,25.8
2019-03-15T14:53:32.984Z,25.7